createdAt,value
2022-11-03T00:01:09.297Z,66.27
2022-11-03T00:03:11.810Z,66.16
2022-11-03T00:05:32.440Z,66.37
2022-11-03T00:07:34.674Z,66.34
2022-11-03T00:09:39.352Z,66.89
2022-11-03T00:11:45.411Z,66.46
2022-11-03T00:13:47.395Z,66.69
2022-11-03T00:15:50.226Z,66.27
2022-11-03T00:17:52.442Z,66.40
2022-11-03T00:19:54.563Z,66.48
2022-11-03T00:21:59.581Z,66.43
2022-11-03T00:24:05.261Z,66.88
2022-11-03T00:26:16.860Z,66.71
2022-11-03T00:28:18.882Z,66.63
2022-11-03T00:30:21.067Z,66.61
2022-11-03T00:32:23.220Z,66.71
2022-11-03T00:34:25.335Z,66.30
2022-11-03T00:36:34.739Z,66.56
2022-11-03T00:38:37.978Z,66.56
2022-11-03T00:41:17.529Z,66.37
2022-11-03T00:43:39.478Z,66.48
2022-11-03T00:45:41.912Z,66.45
2022-11-03T00:48:03.960Z,66.32
2022-11-03T00:50:06.391Z,66.17
2022-11-03T00:52:08.515Z,66.00
2022-11-03T00:54:10.491Z,66.08
2022-11-03T00:56:24.896Z,66.31
2022-11-03T00:58:26.989Z,65.99
2022-11-03T01:00:49.120Z,65.97
2022-11-03T01:02:51.602Z,66.22
2022-11-03T01:05:12.252Z,66.04
2022-11-03T01:07:14.193Z,65.99
2022-11-03T01:09:23.084Z,66.14
2022-11-03T01:11:43.719Z,66.02
2022-11-03T01:13:46.923Z,66.07
2022-11-03T01:15:49.028Z,66.17
2022-11-03T01:17:51.207Z,66.19
2022-11-03T01:19:53.683Z,65.75
2022-11-03T01:21:55.958Z,65.75
2022-11-03T01:24:02.162Z,65.85
2022-11-03T01:26:06.374Z,65.98
2022-11-03T01:28:08.440Z,65.71
2022-11-03T01:30:13.595Z,65.49
2022-11-03T01:32:19.031Z,65.63
2022-11-03T01:34:22.449Z,65.73
2022-11-03T01:36:25.286Z,65.98
2022-11-03T01:38:31.396Z,65.91
2022-11-03T01:40:33.704Z,66.35
2022-11-03T01:42:35.787Z,65.73
2022-11-03T01:44:43.715Z,65.80
2022-11-03T01:47:02.777Z,66.18
2022-11-03T01:49:11.739Z,66.24
2022-11-03T01:51:17.055Z,66.56
2022-11-03T01:53:20.082Z,66.34
2022-11-03T01:55:30.014Z,66.17
2022-11-03T01:57:41.507Z,66.35
2022-11-03T01:59:45.072Z,66.13
2022-11-03T02:01:49.043Z,66.36
2022-11-03T02:04:08.524Z,66.43
2022-11-03T02:06:11.760Z,66.26
2022-11-03T02:08:26.018Z,66.46
2022-11-03T02:10:28.201Z,66.24
2022-11-03T02:12:32.228Z,66.46
2022-11-03T02:14:58.619Z,66.68
2022-11-03T02:17:05.913Z,66.73
2022-11-03T02:19:20.126Z,66.78
2022-11-03T02:21:29.018Z,66.83
2022-11-03T02:23:44.479Z,66.63
2022-11-03T02:25:55.156Z,66.46
2022-11-03T02:27:57.596Z,66.65
2022-11-03T02:30:00.342Z,67.01
2022-11-03T02:32:12.263Z,67.34
2022-11-03T02:34:23.625Z,67.03
2022-11-03T02:36:36.801Z,67.30
2022-11-03T02:38:50.549Z,67.56
2022-11-03T02:40:55.962Z,67.02
2022-11-03T02:42:59.545Z,66.86
2022-11-03T02:45:05.699Z,67.42
2022-11-03T02:47:14.390Z,67.41
2022-11-03T02:49:16.791Z,67.04
2022-11-03T02:51:21.104Z,67.26
2022-11-03T02:53:23.455Z,67.35
2022-11-03T02:55:57.463Z,67.26
2022-11-03T02:58:15.485Z,67.25
2022-11-03T03:00:18.418Z,67.41
2022-11-03T03:02:32.872Z,68.22
2022-11-03T03:04:43.396Z,67.87
2022-11-03T03:06:58.172Z,67.80
2022-11-03T03:09:06.002Z,67.84
2022-11-03T03:11:11.725Z,67.46
2022-11-03T03:13:17.339Z,67.89
2022-11-03T03:15:23.988Z,67.59
2022-11-03T03:17:40.601Z,67.74
2022-11-03T03:20:03.801Z,67.66
2022-11-03T03:22:16.347Z,67.96
2022-11-03T03:24:33.726Z,68.25
2022-11-03T03:26:45.037Z,68.10
2022-11-03T03:28:55.613Z,68.23
2022-11-03T03:31:01.258Z,67.86
2022-11-03T03:33:08.069Z,68.03
2022-11-03T03:35:13.969Z,68.15
2022-11-03T03:37:17.670Z,68.03
2022-11-03T03:39:23.762Z,68.30
2022-11-03T03:41:28.752Z,67.79
2022-11-03T03:43:33.384Z,68.56
2022-11-03T03:45:37.136Z,68.30
2022-11-03T03:47:39.567Z,68.77
2022-11-03T03:49:41.640Z,68.81
2022-11-03T03:51:46.175Z,68.31
2022-11-03T03:53:54.914Z,68.44
2022-11-03T03:55:58.534Z,68.39
2022-11-03T03:58:00.803Z,68.33
2022-11-03T04:00:03.435Z,68.15
2022-11-03T04:02:15.119Z,68.76
2022-11-03T04:04:17.488Z,68.47
2022-11-03T04:06:19.791Z,68.73
2022-11-03T04:08:22.266Z,68.91
2022-11-03T04:10:25.071Z,68.33
2022-11-03T04:12:45.552Z,68.72
2022-11-03T04:15:06.298Z,68.36
2022-11-03T04:17:39.163Z,68.78
2022-11-03T04:20:05.696Z,68.84
2022-11-03T04:22:17.524Z,68.54
2022-11-03T04:24:19.499Z,68.80
2022-11-03T04:26:23.286Z,68.74
2022-11-03T04:28:26.215Z,69.22
2022-11-03T04:30:28.326Z,68.87
2022-11-03T04:32:30.742Z,68.68
2022-11-03T04:34:33.126Z,68.72
2022-11-03T04:36:35.236Z,68.93
2022-11-03T04:38:38.234Z,68.93
2022-11-03T04:40:50.582Z,69.22
2022-11-03T04:42:56.268Z,68.36
2022-11-03T04:45:02.930Z,68.32
2022-11-03T04:47:13.135Z,68.15
2022-11-03T04:49:23.643Z,68.48
2022-11-03T04:51:30.330Z,68.21
2022-11-03T04:53:33.764Z,68.22
2022-11-03T04:55:35.755Z,68.24
2022-11-03T04:57:37.895Z,67.93
2022-11-03T04:59:41.656Z,68.49
2022-11-03T05:01:46.052Z,68.01
2022-11-03T05:03:50.565Z,68.20
2022-11-03T05:05:52.960Z,67.75
2022-11-03T05:07:58.580Z,67.84
2022-11-03T05:10:01.438Z,68.02
2022-11-03T05:12:03.996Z,68.10
2022-11-03T05:14:25.013Z,68.41
2022-11-03T05:16:27.118Z,67.81
2022-11-03T05:18:35.584Z,67.89
2022-11-03T05:20:44.581Z,68.07
2022-11-03T05:22:46.585Z,67.87
2022-11-03T05:24:56.484Z,68.12
2022-11-03T05:27:00.232Z,68.00
2022-11-03T05:29:09.712Z,68.11
2022-11-03T05:31:30.322Z,68.11
2022-11-03T05:33:35.687Z,68.36
2022-11-03T05:35:37.954Z,68.05
2022-11-03T05:37:42.633Z,67.97
2022-11-03T05:39:48.595Z,68.23
2022-11-03T05:41:52.543Z,68.08
2022-11-03T05:44:37.229Z,68.10
2022-11-03T05:46:39.274Z,68.12
2022-11-03T05:48:45.709Z,67.86
2022-11-03T05:50:47.768Z,67.77
2022-11-03T05:52:53.385Z,67.82
2022-11-03T05:54:58.743Z,67.96
2022-11-03T05:57:01.876Z,68.22
2022-11-03T05:59:05.175Z,68.05
2022-11-03T06:01:16.488Z,68.10
2022-11-03T06:03:27.903Z,68.06
2022-11-03T06:05:32.044Z,67.72
2022-11-03T06:07:34.618Z,67.44
2022-11-03T06:09:36.473Z,67.49
2022-11-03T06:11:38.349Z,67.63
2022-11-03T06:13:40.248Z,67.53
2022-11-03T06:15:44.340Z,67.55
2022-11-03T06:17:46.295Z,67.78
2022-11-03T06:19:50.763Z,67.70
2022-11-03T06:21:55.992Z,67.81
2022-11-03T06:23:59.511Z,67.67
2022-11-03T06:26:08.543Z,67.66
2022-11-03T06:28:19.030Z,67.60
2022-11-03T06:30:30.358Z,67.72
2022-11-03T06:32:33.690Z,67.65
2022-11-03T06:35:02.048Z,67.53
2022-11-03T06:37:45.816Z,67.44
2022-11-03T06:39:58.529Z,67.73
2022-11-03T06:42:11.547Z,67.44
2022-11-03T06:44:24.208Z,67.06
2022-11-03T06:46:26.925Z,66.91
2022-11-03T06:48:30.193Z,67.07
2022-11-03T06:50:33.479Z,66.81
2022-11-03T06:52:40.010Z,66.97
2022-11-03T06:54:42.339Z,66.98
2022-11-03T06:56:44.745Z,67.01
2022-11-03T06:58:51.351Z,67.15
2022-11-03T07:00:57.734Z,66.89
2022-11-03T07:03:37.621Z,66.96
2022-11-03T07:05:40.463Z,67.05
2022-11-03T07:07:42.497Z,67.08
2022-11-03T07:09:45.042Z,67.11
2022-11-03T07:11:53.697Z,66.98
2022-11-03T07:14:22.676Z,67.21
2022-11-03T07:16:32.309Z,67.00
2022-11-03T07:18:42.975Z,66.95
2022-11-03T07:20:45.507Z,66.85
2022-11-03T07:22:48.803Z,66.35
2022-11-03T07:24:54.784Z,66.52
2022-11-03T07:27:20.001Z,67.05
2022-11-03T07:29:26.646Z,67.44
2022-11-03T07:31:28.776Z,67.56
2022-11-03T07:33:32.432Z,67.43
2022-11-03T07:36:13.261Z,67.50
2022-11-03T07:38:11.402Z,67.52
2022-11-03T07:40:23.839Z,67.29
2022-11-03T07:45:59.480Z,67.42
2022-11-03T07:48:20.082Z,67.63
2022-11-03T07:50:22.144Z,67.36
2022-11-03T07:52:27.227Z,66.74
2022-11-03T07:54:33.151Z,67.22
2022-11-03T07:56:48.707Z,67.22
2022-11-03T07:59:00.729Z,67.12
2022-11-03T08:04:56.977Z,67.07
2022-11-03T08:06:59.024Z,67.60
2022-11-03T08:09:01.272Z,67.12
2022-11-03T08:11:03.383Z,67.11
2022-11-03T08:13:06.027Z,66.83
2022-11-03T08:15:08.870Z,66.92
2022-11-03T08:17:10.736Z,67.04
2022-11-03T08:19:12.858Z,66.88
2022-11-03T08:21:15.226Z,66.97
2022-11-03T08:23:25.619Z,66.79
2022-11-03T08:25:28.154Z,66.94
2022-11-03T08:27:30.295Z,66.89
2022-11-03T08:29:32.668Z,66.80
2022-11-03T08:31:34.707Z,66.74
2022-11-03T08:33:36.850Z,66.74
2022-11-03T08:35:39.253Z,66.31
2022-11-03T08:37:41.349Z,66.20
2022-11-03T08:39:43.506Z,66.16
2022-11-03T08:41:45.908Z,66.45
2022-11-03T08:43:48.561Z,66.26
2022-11-03T08:45:54.112Z,66.04
2022-11-03T08:47:57.113Z,66.49
2022-11-03T08:50:00.174Z,66.45
2022-11-03T08:52:02.300Z,66.97
2022-11-03T08:54:04.737Z,66.69
2022-11-03T08:56:12.521Z,66.69
2022-11-03T08:58:16.409Z,66.60
2022-11-03T09:00:18.906Z,66.87
2022-11-03T09:02:21.124Z,66.60
2022-11-03T09:04:23.413Z,66.45
2022-11-03T09:06:25.727Z,66.49
2022-11-03T09:10:49.849Z,65.93
2022-11-03T09:12:52.026Z,66.38
2022-11-03T09:14:54.325Z,65.84
2022-11-03T09:16:56.590Z,65.65
2022-11-03T09:18:58.708Z,65.82
2022-11-03T09:21:00.940Z,65.34
2022-11-03T09:23:03.053Z,65.47
2022-11-03T09:25:06.189Z,65.24
2022-11-03T09:27:08.015Z,65.02
2022-11-03T09:29:09.982Z,64.41
2022-11-03T09:31:12.154Z,64.54
2022-11-03T09:33:17.015Z,64.66
2022-11-03T09:35:19.655Z,64.67
2022-11-03T09:37:23.166Z,64.80
2022-11-03T09:39:25.656Z,64.51
2022-11-03T09:41:45.904Z,65.02
2022-11-03T09:43:51.059Z,64.77
2022-11-03T09:45:54.439Z,64.62
2022-11-03T09:47:56.776Z,64.34
2022-11-03T09:49:59.854Z,64.46
2022-11-03T09:52:04.431Z,64.47
2022-11-03T09:54:06.750Z,64.67
2022-11-03T09:56:11.096Z,64.19
2022-11-03T09:58:15.377Z,64.33
2022-11-03T10:00:20.945Z,64.77
2022-11-03T10:02:26.263Z,64.78
2022-11-03T10:04:30.173Z,64.82
2022-11-03T10:06:32.378Z,65.03
2022-11-03T10:08:39.382Z,64.85
2022-11-03T10:10:41.759Z,64.80
2022-11-03T10:12:44.837Z,64.52
2022-11-03T10:14:47.613Z,64.17
2022-11-03T10:16:55.877Z,64.44
2022-11-03T10:18:58.316Z,64.13
2022-11-03T10:21:13.162Z,63.35
2022-11-03T10:23:15.201Z,64.02
2022-11-03T10:25:36.486Z,63.17
2022-11-03T10:27:38.493Z,63.59
2022-11-03T10:29:42.380Z,63.55
2022-11-03T10:31:52.478Z,63.15
2022-11-03T10:33:56.267Z,63.79
2022-11-03T10:36:05.602Z,63.77
2022-11-03T10:38:27.908Z,63.86
2022-11-03T10:40:52.788Z,63.34
2022-11-03T10:43:01.072Z,63.42
2022-11-03T10:45:18.098Z,63.75
2022-11-03T10:47:32.399Z,63.83
2022-11-03T10:49:42.505Z,63.77
2022-11-03T10:51:49.687Z,63.91
2022-11-03T10:53:51.937Z,63.90
2022-11-03T10:55:55.807Z,64.00
2022-11-03T10:57:58.811Z,64.50
2022-11-03T11:00:01.473Z,64.09
2022-11-03T11:02:10.095Z,63.67
2022-11-03T11:04:16.957Z,63.96
2022-11-03T11:06:26.668Z,64.00
2022-11-03T11:08:28.815Z,63.87
2022-11-03T11:10:31.748Z,63.71
2022-11-03T11:12:34.256Z,63.77
2022-11-03T11:14:39.674Z,62.31
2022-11-03T11:16:59.374Z,61.46
2022-11-03T11:19:02.266Z,62.27
2022-11-03T11:21:16.250Z,61.89
2022-11-03T11:23:27.207Z,61.42
2022-11-03T11:26:07.760Z,60.83
2022-11-03T11:28:19.704Z,61.52
2022-11-03T11:30:21.729Z,61.69
2022-11-03T11:32:42.432Z,61.60
2022-11-03T11:34:44.487Z,61.39
2022-11-03T11:36:47.548Z,61.43
2022-11-03T11:38:49.585Z,62.03
2022-11-03T11:40:52.054Z,62.51
2022-11-03T11:43:03.458Z,61.98
2022-11-03T11:45:05.990Z,62.47
2022-11-03T11:47:45.845Z,62.60
2022-11-03T11:49:48.508Z,61.46
2022-11-03T11:51:51.459Z,61.49
2022-11-03T11:54:16.202Z,61.49
2022-11-03T11:56:42.943Z,60.88
2022-11-03T11:58:52.052Z,61.40
2022-11-03T12:01:01.470Z,61.58
2022-11-03T12:03:07.072Z,61.77
2022-11-03T12:05:19.817Z,60.85
2022-11-03T12:07:37.692Z,61.63
2022-11-03T12:09:40.483Z,60.87
2022-11-03T12:11:55.375Z,60.11
2022-11-03T12:13:58.195Z,60.59
2022-11-03T12:16:30.081Z,59.91
2022-11-03T12:18:49.346Z,59.97
2022-11-03T12:20:52.413Z,60.09
2022-11-03T12:22:54.366Z,60.09
2022-11-03T12:24:57.619Z,59.86
2022-11-03T12:27:03.423Z,59.89
2022-11-03T12:29:06.157Z,59.49
2022-11-03T12:31:08.661Z,59.85
2022-11-03T12:33:11.004Z,59.56
2022-11-03T12:35:15.504Z,59.55
2022-11-03T12:37:17.906Z,59.20
2022-11-03T12:39:20.226Z,59.72
2022-11-03T12:45:15.831Z,59.69
2022-11-03T12:47:21.328Z,58.91
2022-11-03T12:49:23.759Z,59.50
2022-11-03T12:51:25.844Z,59.96
2022-11-03T12:53:28.256Z,59.19
2022-11-03T12:55:30.773Z,59.26
2022-11-03T12:57:33.110Z,58.86
2022-11-03T12:59:35.288Z,59.06
2022-11-03T13:01:38.225Z,59.32
2022-11-03T13:03:41.342Z,58.99
2022-11-03T13:05:43.518Z,59.19
2022-11-03T13:07:45.639Z,58.55
2022-11-03T13:09:47.896Z,58.55
2022-11-03T13:12:08.576Z,58.20
2022-11-03T13:14:10.753Z,58.00
2022-11-03T13:16:12.767Z,58.35
2022-11-03T13:18:14.828Z,58.28
2022-11-03T13:20:17.200Z,58.44
2022-11-03T13:22:20.055Z,58.05
2022-11-03T13:24:22.406Z,57.80
2022-11-03T13:26:24.719Z,58.16
2022-11-03T13:28:26.730Z,58.36
2022-11-03T13:30:29.011Z,57.86
2022-11-03T13:32:33.984Z,57.74
2022-11-03T13:34:36.203Z,57.62
2022-11-03T13:36:38.694Z,56.12
2022-11-03T13:38:43.359Z,56.74
2022-11-03T13:41:06.943Z,56.63
2022-11-03T13:43:08.413Z,56.43
2022-11-03T13:45:10.992Z,56.45
2022-11-03T13:47:16.089Z,55.42
2022-11-03T13:51:41.158Z,56.64
2022-11-03T13:56:08.539Z,55.59
2022-11-03T14:00:33.041Z,55.82
2022-11-03T14:04:57.187Z,55.52
2022-11-03T14:06:59.391Z,55.68
2022-11-03T14:09:04.291Z,55.81
2022-11-03T14:11:24.871Z,55.95
2022-11-03T14:13:27.199Z,56.07
2022-11-03T14:15:29.665Z,56.24
2022-11-03T14:17:34.012Z,55.78
2022-11-03T14:19:42.939Z,56.44
2022-11-03T14:21:47.670Z,56.22
2022-11-03T14:23:49.932Z,56.36
2022-11-03T14:26:00.488Z,56.87
2022-11-03T14:28:18.677Z,56.81
2022-11-03T14:30:24.879Z,56.51
2022-11-03T14:32:27.108Z,56.46
2022-11-03T14:34:29.404Z,56.69
2022-11-03T14:36:31.692Z,56.54
2022-11-03T14:38:36.216Z,56.50
2022-11-03T14:40:57.058Z,56.79
2022-11-03T14:42:59.370Z,56.70
2022-11-03T14:45:01.720Z,56.71
2022-11-03T14:47:05.435Z,56.53
2022-11-03T14:49:07.523Z,56.38
2022-11-03T14:51:10.305Z,56.34
2022-11-03T14:53:12.329Z,56.93
2022-11-03T14:55:14.446Z,57.32
2022-11-03T14:57:17.335Z,56.82
2022-11-03T14:59:19.364Z,56.91
2022-11-03T15:01:21.784Z,56.46
2022-11-03T15:03:24.108Z,57.00
2022-11-03T15:05:44.304Z,56.96
2022-11-03T15:07:46.266Z,57.39
2022-11-03T15:09:48.548Z,56.69
2022-11-03T15:11:50.325Z,56.42
2022-11-03T15:13:52.833Z,56.95
2022-11-03T15:15:54.955Z,57.10
2022-11-03T15:18:02.452Z,56.75
2022-11-03T15:20:05.370Z,56.79
2022-11-03T15:22:07.732Z,56.64
2022-11-03T15:26:31.786Z,57.13
2022-11-03T15:28:33.773Z,57.08
2022-11-03T15:34:22.879Z,56.80
2022-11-03T15:36:25.137Z,56.61
2022-11-03T15:38:27.196Z,56.60
2022-11-03T15:41:32.294Z,56.37
2022-11-03T15:43:34.304Z,56.24
2022-11-03T15:45:36.316Z,56.18
2022-11-03T15:47:39.214Z,56.13
2022-11-03T15:49:41.430Z,55.94
2022-11-03T15:51:43.344Z,55.72
2022-11-03T15:53:45.316Z,56.12
2022-11-03T15:55:47.434Z,56.17
2022-11-03T15:57:50.696Z,56.14
2022-11-03T15:59:55.308Z,55.84
2022-11-03T16:02:08.656Z,55.67
2022-11-03T16:04:24.687Z,55.59
2022-11-03T16:06:40.538Z,55.78
2022-11-03T16:08:48.996Z,56.04
2022-11-03T16:10:57.331Z,56.33
2022-11-03T16:13:00.280Z,56.13
2022-11-03T16:15:02.405Z,56.02
2022-11-03T16:17:05.454Z,55.99
2022-11-03T16:19:07.382Z,56.12
2022-11-03T16:21:12.148Z,56.13
2022-11-03T16:23:14.228Z,55.98
2022-11-03T16:34:07.418Z,56.79
2022-11-03T16:36:09.766Z,56.44
2022-11-03T16:38:13.631Z,56.75
2022-11-03T16:40:19.296Z,56.57
2022-11-03T16:42:21.792Z,56.47
2022-11-03T16:44:23.742Z,56.46
2022-11-03T16:46:25.822Z,55.94
2022-11-03T16:48:27.734Z,55.81
2022-11-03T16:50:30.095Z,55.81
2022-11-03T16:52:31.931Z,55.98
2022-11-03T16:54:33.932Z,55.67
2022-11-03T16:56:36.286Z,55.82
2022-11-03T16:58:38.337Z,55.69
2022-11-03T17:00:40.310Z,55.79
2022-11-03T17:03:45.271Z,55.28
2022-11-03T17:05:47.422Z,55.71
2022-11-03T17:07:53.683Z,55.65
2022-11-03T17:09:56.250Z,55.50
2022-11-03T17:11:58.303Z,55.84
2022-11-03T17:16:02.234Z,55.69
2022-11-03T17:18:04.324Z,55.29
2022-11-03T17:20:06.988Z,55.20
2022-11-03T17:22:09.255Z,55.32
2022-11-03T17:24:11.521Z,55.04
2022-11-03T17:26:13.858Z,55.36
2022-11-03T17:28:18.949Z,55.13
2022-11-03T17:30:26.312Z,55.03
2022-11-03T17:32:37.105Z,54.67
2022-11-03T17:34:42.188Z,55.23
2022-11-03T17:36:44.171Z,55.05
2022-11-03T17:38:46.193Z,55.34
2022-11-03T17:40:48.516Z,55.62
2022-11-03T17:42:51.218Z,55.62
2022-11-03T17:44:55.924Z,55.24
2022-11-03T17:46:57.954Z,55.57
2022-11-03T17:49:00.167Z,55.14
2022-11-03T17:51:05.327Z,55.25
2022-11-03T17:53:13.717Z,55.25
2022-11-03T17:55:31.386Z,55.12
2022-11-03T17:57:33.852Z,55.17
2022-11-03T17:59:36.169Z,55.31
2022-11-03T18:01:38.379Z,55.35
2022-11-03T18:03:40.782Z,55.41
2022-11-03T18:05:42.951Z,55.58
2022-11-03T18:07:45.028Z,55.24
2022-11-03T18:09:47.663Z,55.26
2022-11-03T18:12:08.661Z,55.22
2022-11-03T18:14:10.922Z,55.50
2022-11-03T18:16:13.226Z,55.72
2022-11-03T18:18:18.845Z,55.85
2022-11-03T18:20:32.148Z,56.06
2022-11-03T18:22:34.115Z,55.95
2022-11-03T18:24:36.020Z,56.91
2022-11-03T18:26:38.223Z,56.98
2022-11-03T18:28:43.328Z,56.63
2022-11-03T18:30:48.632Z,56.37
2022-11-03T18:32:50.714Z,56.50
2022-11-03T18:34:52.831Z,56.19
2022-11-03T18:36:55.425Z,56.18
2022-11-03T18:38:58.244Z,56.58
2022-11-03T18:41:01.058Z,56.36
2022-11-03T18:43:11.722Z,55.65
2022-11-03T18:45:16.272Z,56.00
2022-11-03T18:48:20.451Z,55.38
2022-11-03T18:50:22.714Z,55.68
2022-11-03T18:52:24.799Z,55.69
2022-11-03T18:54:30.435Z,55.84
2022-11-03T18:56:35.686Z,55.45
2022-11-03T19:02:36.446Z,55.77
2022-11-03T19:04:38.643Z,55.88
2022-11-03T19:06:43.202Z,55.72
2022-11-03T19:08:48.424Z,55.73
2022-11-03T19:10:52.346Z,55.98
2022-11-03T19:12:57.751Z,56.32
2022-11-03T19:15:00.550Z,56.03
2022-11-03T19:17:22.382Z,55.86
2022-11-03T19:19:26.515Z,55.66
2022-11-03T19:21:28.605Z,55.82
2022-11-03T19:23:31.094Z,56.25
2022-11-03T19:25:33.698Z,56.74
2022-11-03T19:27:40.596Z,56.61
2022-11-03T19:29:44.094Z,57.02
2022-11-03T19:31:49.111Z,57.27
2022-11-03T19:33:54.658Z,57.15
2022-11-03T19:35:58.396Z,57.06
2022-11-03T19:38:07.246Z,56.85
2022-11-03T19:40:14.963Z,57.13
2022-11-03T19:42:37.005Z,56.76
2022-11-03T19:44:39.393Z,56.83
2022-11-03T19:46:44.789Z,56.76
2022-11-03T19:48:47.113Z,56.46
2022-11-03T19:50:49.476Z,57.32
2022-11-03T19:53:06.498Z,57.40
2022-11-03T19:55:14.062Z,57.05
2022-11-03T19:57:22.716Z,57.89
2022-11-03T19:59:24.813Z,57.54
2022-11-03T20:01:27.397Z,57.77
2022-11-03T20:03:29.569Z,57.64
2022-11-03T20:05:32.080Z,57.56
2022-11-03T20:07:34.172Z,57.68
2022-11-03T20:09:37.305Z,57.60
2022-11-03T20:11:39.277Z,58.38
2022-11-03T20:13:43.338Z,58.84
2022-11-03T20:15:45.709Z,58.79
2022-11-03T20:17:49.101Z,59.03
2022-11-03T20:19:53.408Z,58.76
2022-11-03T20:21:55.762Z,59.14
2022-11-03T20:23:58.837Z,59.23
2022-11-03T20:26:02.598Z,58.98
2022-11-03T20:28:19.159Z,58.92
2022-11-03T20:30:23.439Z,58.29
2022-11-03T20:32:25.676Z,58.09
2022-11-03T20:34:28.010Z,58.41
2022-11-03T20:36:33.515Z,59.10
2022-11-03T20:38:36.850Z,59.30
2022-11-03T20:40:39.969Z,59.20
2022-11-03T20:42:43.306Z,58.96
2022-11-03T20:44:45.361Z,58.65
2022-11-03T20:46:47.657Z,58.37
2022-11-03T20:48:50.321Z,58.55
2022-11-03T20:50:54.185Z,58.11
2022-11-03T20:52:59.435Z,58.53
2022-11-03T20:55:02.183Z,58.66
2022-11-03T20:57:06.939Z,59.07
2022-11-03T21:01:30.571Z,58.36
2022-11-03T21:05:55.367Z,58.16
2022-11-03T21:07:58.036Z,58.33
2022-11-03T21:10:00.410Z,58.29
2022-11-03T21:12:03.004Z,58.40
2022-11-03T21:14:19.646Z,58.75
2022-11-03T21:16:41.591Z,58.88
2022-11-03T21:19:02.707Z,59.51
2022-11-03T21:21:10.884Z,59.03
2022-11-03T21:23:22.577Z,59.23
2022-11-03T21:25:25.433Z,58.94
2022-11-03T21:27:27.766Z,58.70
2022-11-03T21:31:52.111Z,58.22
2022-11-03T21:33:54.306Z,58.50
2022-11-03T21:35:58.649Z,58.48
2022-11-03T21:38:01.874Z,58.25
2022-11-03T21:40:04.290Z,58.28
2022-11-03T21:42:24.708Z,57.92
2022-11-03T21:44:27.152Z,58.10
2022-11-03T21:46:29.640Z,57.81
2022-11-03T21:48:50.733Z,57.91
2022-11-03T21:50:52.882Z,58.35
2022-11-03T21:52:55.453Z,58.20
2022-11-03T21:55:05.264Z,59.21
2022-11-03T21:57:09.247Z,59.08
2022-11-03T21:59:11.727Z,59.19
2022-11-03T22:01:14.279Z,59.81
2022-11-03T22:03:16.719Z,59.95
2022-11-03T22:05:18.814Z,59.11
2022-11-03T22:07:21.868Z,58.99
2022-11-03T22:09:25.132Z,58.94
2022-11-03T22:11:27.305Z,59.15
2022-11-03T22:13:29.446Z,59.92
2022-11-03T22:18:42.364Z,59.23
2022-11-03T22:21:03.272Z,60.29
2022-11-03T22:23:24.112Z,59.98
2022-11-03T22:25:45.035Z,60.18
2022-11-03T22:27:47.636Z,60.67
2022-11-03T22:30:59.630Z,60.88
2022-11-03T22:33:02.115Z,61.06
2022-11-03T22:35:23.605Z,60.88
2022-11-03T22:37:25.953Z,61.27
2022-11-03T22:39:46.508Z,60.86
2022-11-03T22:42:07.323Z,61.20
2022-11-03T22:44:28.291Z,61.13
2022-11-03T22:46:31.049Z,61.09
2022-11-03T22:48:34.018Z,61.07
2022-11-03T22:50:36.272Z,61.18
2022-11-03T22:52:38.433Z,60.88
2022-11-03T22:54:40.584Z,61.04
2022-11-03T22:56:42.966Z,60.79
2022-11-03T22:58:45.538Z,60.62
2022-11-03T23:00:50.618Z,60.69
2022-11-03T23:02:53.983Z,60.51
2022-11-03T23:04:55.974Z,60.30
2022-11-03T23:06:57.950Z,59.98
2022-11-03T23:09:00.949Z,59.43
2022-11-03T23:11:08.925Z,59.36
2022-11-03T23:13:11.375Z,59.47
2022-11-03T23:15:32.205Z,59.55
2022-11-03T23:17:52.864Z,59.14
2022-11-03T23:20:13.671Z,59.60
2022-11-03T23:22:15.983Z,59.86
2022-11-03T23:24:40.582Z,60.33
2022-11-03T23:26:46.886Z,60.53
2022-11-03T23:28:49.355Z,60.74
2022-11-03T23:30:56.845Z,61.05
2022-11-03T23:33:00.733Z,61.31
2022-11-03T23:35:04.785Z,61.62
2022-11-03T23:37:06.891Z,61.78
2022-11-03T23:39:33.863Z,62.14
2022-11-03T23:41:35.834Z,61.63
2022-11-03T23:43:38.427Z,61.84
2022-11-03T23:45:58.760Z,61.51
2022-11-03T23:51:48.222Z,61.48
2022-11-03T23:53:51.353Z,61.67
2022-11-03T23:56:12.310Z,61.54
2022-11-03T23:58:20.342Z,61.92
